sensor_id;sensor_type;location;lat;lon;timestamp;temperature;humidity
666;DHT22;315;48.738;9.126;2022-12-07T00:00:41;5.00;99.90
666;DHT22;315;48.738;9.126;2022-12-07T00:03:06;5.00;99.90
666;DHT22;315;48.738;9.126;2022-12-07T00:05:32;5.00;99.90
666;DHT22;315;48.738;9.126;2022-12-07T00:07:57;4.90;99.90
666;DHT22;315;48.738;9.126;2022-12-07T00:10:23;5.00;99.90
666;DHT22;315;48.738;9.126;2022-12-07T00:12:48;4.90;99.90
666;DHT22;315;48.738;9.126;2022-12-07T00:15:15;4.90;99.90
666;DHT22;315;48.738;9.126;2022-12-07T00:17:41;4.90;99.90
666;DHT22;315;48.738;9.126;2022-12-07T00:20:07;5.00;99.90
666;DHT22;315;48.738;9.126;2022-12-07T00:22:32;4.90;99.90
666;DHT22;315;48.738;9.126;2022-12-07T00:24:58;4.90;99.90
666;DHT22;315;48.738;9.126;2022-12-07T00:27:23;4.80;99.90
666;DHT22;315;48.738;9.126;2022-12-07T00:29:49;4.70;99.90
666;DHT22;315;48.738;9.126;2022-12-07T00:32:14;4.70;99.90
666;DHT22;315;48.738;9.126;2022-12-07T00:34:40;4.80;99.90
666;DHT22;315;48.738;9.126;2022-12-07T00:37:05;4.80;99.90
666;DHT22;315;48.738;9.126;2022-12-07T00:39:31;4.80;99.90
666;DHT22;315;48.738;9.126;2022-12-07T00:41:56;4.80;99.90
666;DHT22;315;48.738;9.126;2022-12-07T00:44:22;4.70;99.90
666;DHT22;315;48.738;9.126;2022-12-07T00:46:47;4.80;99.90
666;DHT22;315;48.738;9.126;2022-12-07T00:49:13;4.80;99.90
666;DHT22;315;48.738;9.126;2022-12-07T00:51:38;4.80;99.90
666;DHT22;315;48.738;9.126;2022-12-07T00:54:04;4.80;99.90
666;DHT22;315;48.738;9.126;2022-12-07T00:56:30;4.80;99.90
666;DHT22;315;48.738;9.126;2022-12-07T00:59:00;4.70;99.90
666;DHT22;315;48.738;9.126;2022-12-07T01:01:29;4.70;99.90
666;DHT22;315;48.738;9.126;2022-12-07T01:03:55;4.70;99.90
666;DHT22;315;48.738;9.126;2022-12-07T01:06:25;4.70;99.90
666;DHT22;315;48.738;9.126;2022-12-07T01:08:51;4.70;99.90
666;DHT22;315;48.738;9.126;2022-12-07T01:11:18;4.50;99.90
666;DHT22;315;48.738;9.126;2022-12-07T01:13:45;4.50;99.90
666;DHT22;315;48.738;9.126;2022-12-07T01:16:14;4.50;99.90
666;DHT22;315;48.738;9.126;2022-12-07T01:18:40;4.50;99.90
666;DHT22;315;48.738;9.126;2022-12-07T01:21:11;4.60;99.90
666;DHT22;315;48.738;9.126;2022-12-07T01:23:37;4.60;99.90
666;DHT22;315;48.738;9.126;2022-12-07T01:26:09;4.60;99.90
666;DHT22;315;48.738;9.126;2022-12-07T01:28:34;4.70;99.90
666;DHT22;315;48.738;9.126;2022-12-07T01:31:03;4.70;99.90
666;DHT22;315;48.738;9.126;2022-12-07T01:33:31;4.70;99.90
666;DHT22;315;48.738;9.126;2022-12-07T01:36:08;4.70;99.90
666;DHT22;315;48.738;9.126;2022-12-07T01:38:38;4.70;99.90
666;DHT22;315;48.738;9.126;2022-12-07T01:41:03;4.70;99.90
666;DHT22;315;48.738;9.126;2022-12-07T01:43:31;4.60;99.90
666;DHT22;315;48.738;9.126;2022-12-07T01:45:57;4.60;99.90
666;DHT22;315;48.738;9.126;2022-12-07T01:48:27;4.60;99.90
666;DHT22;315;48.738;9.126;2022-12-07T01:50:56;4.70;99.90
666;DHT22;315;48.738;9.126;2022-12-07T01:53:25;4.70;99.90
666;DHT22;315;48.738;9.126;2022-12-07T01:55:52;4.70;99.90
666;DHT22;315;48.738;9.126;2022-12-07T01:58:18;4.70;99.90
666;DHT22;315;48.738;9.126;2022-12-07T02:00:45;4.60;99.90
666;DHT22;315;48.738;9.126;2022-12-07T02:03:16;4.60;99.90
666;DHT22;315;48.738;9.126;2022-12-07T02:05:44;4.60;99.90
666;DHT22;315;48.738;9.126;2022-12-07T02:08:12;4.50;99.90
666;DHT22;315;48.738;9.126;2022-12-07T02:10:39;4.60;99.90
666;DHT22;315;48.738;9.126;2022-12-07T02:13:26;4.70;99.90
666;DHT22;315;48.738;9.126;2022-12-07T02:19:07;4.70;99.90
666;DHT22;315;48.738;9.126;2022-12-07T02:24:40;4.70;99.90
666;DHT22;315;48.738;9.126;2022-12-07T02:27:37;4.60;99.90
666;DHT22;315;48.738;9.126;2022-12-07T02:30:05;4.60;99.90
666;DHT22;315;48.738;9.126;2022-12-07T02:35:17;4.50;99.90
666;DHT22;315;48.738;9.126;2022-12-07T02:41:02;4.50;99.90
666;DHT22;315;48.738;9.126;2022-12-07T02:43:34;4.40;99.90
666;DHT22;315;48.738;9.126;2022-12-07T02:46:14;4.40;99.90
666;DHT22;315;48.738;9.126;2022-12-07T02:48:43;4.40;99.90
666;DHT22;315;48.738;9.126;2022-12-07T02:51:09;4.40;99.90
666;DHT22;315;48.738;9.126;2022-12-07T03:12:56;4.40;99.90
666;DHT22;315;48.738;9.126;2022-12-07T03:15:40;4.30;99.90
666;DHT22;315;48.738;9.126;2022-12-07T03:18:09;4.20;99.90
666;DHT22;315;48.738;9.126;2022-12-07T03:20:38;4.30;99.90
666;DHT22;315;48.738;9.126;2022-12-07T03:23:06;4.30;99.90
666;DHT22;315;48.738;9.126;2022-12-07T03:25:37;4.30;99.90
666;DHT22;315;48.738;9.126;2022-12-07T03:28:06;4.30;99.90
666;DHT22;315;48.738;9.126;2022-12-07T03:31:03;4.30;99.90
666;DHT22;315;48.738;9.126;2022-12-07T03:33:42;4.30;99.90
666;DHT22;315;48.738;9.126;2022-12-07T03:36:30;4.30;99.90
666;DHT22;315;48.738;9.126;2022-12-07T03:39:06;4.30;99.90
666;DHT22;315;48.738;9.126;2022-12-07T03:41:35;4.20;99.90
666;DHT22;315;48.738;9.126;2022-12-07T03:44:02;4.30;99.90
666;DHT22;315;48.738;9.126;2022-12-07T03:54:41;4.20;99.90
666;DHT22;315;48.738;9.126;2022-12-07T03:57:05;4.20;99.90
666;DHT22;315;48.738;9.126;2022-12-07T03:59:32;4.20;99.90
666;DHT22;315;48.738;9.126;2022-12-07T04:02:03;4.10;99.90
666;DHT22;315;48.738;9.126;2022-12-07T04:04:29;4.00;99.90
666;DHT22;315;48.738;9.126;2022-12-07T04:06:55;3.90;99.90
666;DHT22;315;48.738;9.126;2022-12-07T04:09:21;3.90;99.90
666;DHT22;315;48.738;9.126;2022-12-07T04:11:47;3.80;99.90
666;DHT22;315;48.738;9.126;2022-12-07T04:14:12;3.90;99.90
666;DHT22;315;48.738;9.126;2022-12-07T04:16:45;3.80;99.90
666;DHT22;315;48.738;9.126;2022-12-07T04:19:11;3.70;99.90
666;DHT22;315;48.738;9.126;2022-12-07T04:21:37;3.80;99.90
666;DHT22;315;48.738;9.126;2022-12-07T04:24:03;3.80;99.90
666;DHT22;315;48.738;9.126;2022-12-07T04:26:29;3.80;99.90
666;DHT22;315;48.738;9.126;2022-12-07T04:28:54;3.80;99.90
666;DHT22;315;48.738;9.126;2022-12-07T04:31:20;3.70;99.90
666;DHT22;315;48.738;9.126;2022-12-07T04:33:45;3.70;99.90
666;DHT22;315;48.738;9.126;2022-12-07T04:36:11;3.80;99.90
666;DHT22;315;48.738;9.126;2022-12-07T04:38:36;3.80;99.90
666;DHT22;315;48.738;9.126;2022-12-07T04:41:09;3.80;99.90
666;DHT22;315;48.738;9.126;2022-12-07T04:43:35;3.80;99.90
666;DHT22;315;48.738;9.126;2022-12-07T04:46:01;3.80;99.90
666;DHT22;315;48.738;9.126;2022-12-07T04:48:27;3.70;99.90
666;DHT22;315;48.738;9.126;2022-12-07T04:50:53;3.60;99.90
666;DHT22;315;48.738;9.126;2022-12-07T04:53:19;3.60;99.90
666;DHT22;315;48.738;9.126;2022-12-07T04:55:45;3.50;99.90
666;DHT22;315;48.738;9.126;2022-12-07T04:58:12;3.50;99.90
666;DHT22;315;48.738;9.126;2022-12-07T05:00:37;3.50;99.90
666;DHT22;315;48.738;9.126;2022-12-07T05:03:03;3.50;99.90
666;DHT22;315;48.738;9.126;2022-12-07T05:05:28;3.50;99.90
666;DHT22;315;48.738;9.126;2022-12-07T05:07:54;3.50;99.90
666;DHT22;315;48.738;9.126;2022-12-07T05:10:20;3.50;99.90
666;DHT22;315;48.738;9.126;2022-12-07T05:12:46;3.50;99.90
666;DHT22;315;48.738;9.126;2022-12-07T05:15:12;3.50;99.90
666;DHT22;315;48.738;9.126;2022-12-07T05:17:38;3.50;99.90
666;DHT22;315;48.738;9.126;2022-12-07T05:20:04;3.50;99.90
666;DHT22;315;48.738;9.126;2022-12-07T05:22:30;3.50;99.90
666;DHT22;315;48.738;9.126;2022-12-07T05:24:56;3.60;99.90
666;DHT22;315;48.738;9.126;2022-12-07T05:27:22;3.60;99.90
666;DHT22;315;48.738;9.126;2022-12-07T05:29:47;3.60;99.90
666;DHT22;315;48.738;9.126;2022-12-07T05:32:14;3.60;99.90
666;DHT22;315;48.738;9.126;2022-12-07T05:34:40;3.60;99.90
666;DHT22;315;48.738;9.126;2022-12-07T05:37:05;3.60;99.90
666;DHT22;315;48.738;9.126;2022-12-07T05:39:31;3.50;99.90
666;DHT22;315;48.738;9.126;2022-12-07T05:41:56;3.40;99.90
666;DHT22;315;48.738;9.126;2022-12-07T05:44:41;3.40;99.90
666;DHT22;315;48.738;9.126;2022-12-07T05:47:07;3.30;99.90
666;DHT22;315;48.738;9.126;2022-12-07T05:49:33;3.30;99.90
666;DHT22;315;48.738;9.126;2022-12-07T05:51:58;3.30;99.90
666;DHT22;315;48.738;9.126;2022-12-07T05:54:24;3.20;99.90
666;DHT22;315;48.738;9.126;2022-12-07T05:56:50;3.10;99.90
666;DHT22;315;48.738;9.126;2022-12-07T05:59:15;3.00;99.90
666;DHT22;315;48.738;9.126;2022-12-07T06:01:52;2.90;99.90
666;DHT22;315;48.738;9.126;2022-12-07T06:04:19;2.90;99.90
666;DHT22;315;48.738;9.126;2022-12-07T06:06:45;2.60;99.90
666;DHT22;315;48.738;9.126;2022-12-07T06:09:11;2.80;99.90
666;DHT22;315;48.738;9.126;2022-12-07T06:11:38;2.90;99.90
666;DHT22;315;48.738;9.126;2022-12-07T06:14:22;2.90;99.90
666;DHT22;315;48.738;9.126;2022-12-07T06:16:48;2.90;99.90
666;DHT22;315;48.738;9.126;2022-12-07T06:19:14;3.00;99.90
666;DHT22;315;48.738;9.126;2022-12-07T06:21:39;3.10;99.90
666;DHT22;315;48.738;9.126;2022-12-07T06:24:05;3.10;99.90
666;DHT22;315;48.738;9.126;2022-12-07T06:26:31;3.10;99.90
666;DHT22;315;48.738;9.126;2022-12-07T06:28:56;3.10;99.90
666;DHT22;315;48.738;9.126;2022-12-07T06:31:22;3.10;99.90
666;DHT22;315;48.738;9.126;2022-12-07T06:33:48;3.20;99.90
666;DHT22;315;48.738;9.126;2022-12-07T06:36:13;3.20;99.90
666;DHT22;315;48.738;9.126;2022-12-07T06:38:39;3.30;99.90
666;DHT22;315;48.738;9.126;2022-12-07T06:41:04;3.40;99.90
666;DHT22;315;48.738;9.126;2022-12-07T06:43:30;3.30;99.90
666;DHT22;315;48.738;9.126;2022-12-07T06:45:56;3.30;99.90
666;DHT22;315;48.738;9.126;2022-12-07T06:48:21;3.20;99.90
666;DHT22;315;48.738;9.126;2022-12-07T06:50:47;3.20;99.90
666;DHT22;315;48.738;9.126;2022-12-07T06:53:13;3.20;99.90
666;DHT22;315;48.738;9.126;2022-12-07T06:55:39;3.20;99.90
666;DHT22;315;48.738;9.126;2022-12-07T06:58:04;3.10;99.90
666;DHT22;315;48.738;9.126;2022-12-07T07:00:30;3.10;99.90
666;DHT22;315;48.738;9.126;2022-12-07T07:02:56;3.10;99.90
666;DHT22;315;48.738;9.126;2022-12-07T07:05:21;3.10;99.90
666;DHT22;315;48.738;9.126;2022-12-07T07:07:50;3.00;99.90
666;DHT22;315;48.738;9.126;2022-12-07T07:10:15;3.00;99.90
666;DHT22;315;48.738;9.126;2022-12-07T07:12:41;3.10;99.90
666;DHT22;315;48.738;9.126;2022-12-07T07:15:07;3.10;99.90
666;DHT22;315;48.738;9.126;2022-12-07T07:17:32;3.10;99.90
666;DHT22;315;48.738;9.126;2022-12-07T07:19:58;3.20;99.90
666;DHT22;315;48.738;9.126;2022-12-07T07:22:23;3.20;99.90
666;DHT22;315;48.738;9.126;2022-12-07T07:24:49;3.20;99.90
666;DHT22;315;48.738;9.126;2022-12-07T07:27:14;3.30;99.90
666;DHT22;315;48.738;9.126;2022-12-07T07:29:40;3.40;99.90
666;DHT22;315;48.738;9.126;2022-12-07T07:32:05;3.40;99.90
666;DHT22;315;48.738;9.126;2022-12-07T07:34:33;3.50;99.90
666;DHT22;315;48.738;9.126;2022-12-07T07:36:58;3.50;99.90
666;DHT22;315;48.738;9.126;2022-12-07T07:39:24;3.50;99.90
666;DHT22;315;48.738;9.126;2022-12-07T07:41:49;3.60;99.90
666;DHT22;315;48.738;9.126;2022-12-07T07:44:15;3.30;99.90
666;DHT22;315;48.738;9.126;2022-12-07T07:46:40;3.70;99.90
666;DHT22;315;48.738;9.126;2022-12-07T07:49:06;3.70;99.90
666;DHT22;315;48.738;9.126;2022-12-07T07:51:31;3.80;99.90
666;DHT22;315;48.738;9.126;2022-12-07T07:53:57;3.70;99.90
666;DHT22;315;48.738;9.126;2022-12-07T07:56:22;3.70;99.90
666;DHT22;315;48.738;9.126;2022-12-07T07:58:52;3.70;99.90
666;DHT22;315;48.738;9.126;2022-12-07T08:01:17;3.70;99.90
666;DHT22;315;48.738;9.126;2022-12-07T08:03:45;3.80;99.90
666;DHT22;315;48.738;9.126;2022-12-07T08:06:11;3.90;99.90
666;DHT22;315;48.738;9.126;2022-12-07T08:08:36;3.90;99.90
666;DHT22;315;48.738;9.126;2022-12-07T08:11:05;3.90;99.90
666;DHT22;315;48.738;9.126;2022-12-07T08:13:31;4.00;99.90
666;DHT22;315;48.738;9.126;2022-12-07T08:15:56;4.00;99.90
666;DHT22;315;48.738;9.126;2022-12-07T08:18:22;4.20;99.90
666;DHT22;315;48.738;9.126;2022-12-07T08:20:47;4.20;99.90
666;DHT22;315;48.738;9.126;2022-12-07T08:23:13;4.30;99.90
666;DHT22;315;48.738;9.126;2022-12-07T08:25:39;4.40;99.90
666;DHT22;315;48.738;9.126;2022-12-07T08:28:04;4.30;99.90
666;DHT22;315;48.738;9.126;2022-12-07T08:30:31;4.40;99.90
666;DHT22;315;48.738;9.126;2022-12-07T08:32:57;4.50;99.90
666;DHT22;315;48.738;9.126;2022-12-07T08:35:23;4.50;99.90
666;DHT22;315;48.738;9.126;2022-12-07T08:37:49;4.50;99.90
666;DHT22;315;48.738;9.126;2022-12-07T08:40:14;4.50;99.90
666;DHT22;315;48.738;9.126;2022-12-07T08:42:41;4.50;99.90
666;DHT22;315;48.738;9.126;2022-12-07T08:45:10;4.50;99.90
666;DHT22;315;48.738;9.126;2022-12-07T08:47:38;4.60;99.90
666;DHT22;315;48.738;9.126;2022-12-07T08:50:07;4.60;99.90
666;DHT22;315;48.738;9.126;2022-12-07T08:52:34;4.60;99.90
666;DHT22;315;48.738;9.126;2022-12-07T08:55:00;4.80;99.90
666;DHT22;315;48.738;9.126;2022-12-07T08:57:27;4.90;99.90
666;DHT22;315;48.738;9.126;2022-12-07T08:59:53;4.80;99.90
666;DHT22;315;48.738;9.126;2022-12-07T09:02:19;4.90;99.90
666;DHT22;315;48.738;9.126;2022-12-07T09:04:45;4.90;99.90
666;DHT22;315;48.738;9.126;2022-12-07T09:07:10;4.90;99.90
666;DHT22;315;48.738;9.126;2022-12-07T09:09:36;5.00;99.90
666;DHT22;315;48.738;9.126;2022-12-07T09:12:02;5.10;99.90
666;DHT22;315;48.738;9.126;2022-12-07T09:14:28;5.20;99.90
666;DHT22;315;48.738;9.126;2022-12-07T09:16:53;5.20;99.90
666;DHT22;315;48.738;9.126;2022-12-07T09:19:19;5.20;99.90
666;DHT22;315;48.738;9.126;2022-12-07T09:21:44;5.20;99.90
666;DHT22;315;48.738;9.126;2022-12-07T09:24:12;5.30;99.90
666;DHT22;315;48.738;9.126;2022-12-07T09:26:37;5.40;99.90
666;DHT22;315;48.738;9.126;2022-12-07T09:29:04;5.50;99.90
666;DHT22;315;48.738;9.126;2022-12-07T09:31:30;5.40;99.90
666;DHT22;315;48.738;9.126;2022-12-07T09:33:58;5.20;99.90
666;DHT22;315;48.738;9.126;2022-12-07T09:36:24;5.30;99.90
666;DHT22;315;48.738;9.126;2022-12-07T09:38:50;5.40;99.90
666;DHT22;315;48.738;9.126;2022-12-07T09:41:16;5.40;99.90
666;DHT22;315;48.738;9.126;2022-12-07T09:43:42;5.50;99.90
666;DHT22;315;48.738;9.126;2022-12-07T09:46:11;5.60;99.90
666;DHT22;315;48.738;9.126;2022-12-07T09:48:38;5.60;99.90
666;DHT22;315;48.738;9.126;2022-12-07T09:51:21;5.70;99.90
666;DHT22;315;48.738;9.126;2022-12-07T09:53:48;5.80;99.90
666;DHT22;315;48.738;9.126;2022-12-07T09:56:16;6.10;99.90
666;DHT22;315;48.738;9.126;2022-12-07T09:58:42;6.20;99.90
666;DHT22;315;48.738;9.126;2022-12-07T10:03:36;6.60;99.90
666;DHT22;315;48.738;9.126;2022-12-07T10:06:04;6.60;99.90
666;DHT22;315;48.738;9.126;2022-12-07T10:08:31;6.40;99.90
666;DHT22;315;48.738;9.126;2022-12-07T10:10:57;6.20;99.90
666;DHT22;315;48.738;9.126;2022-12-07T10:13:38;6.10;99.90
666;DHT22;315;48.738;9.126;2022-12-07T10:16:04;5.90;99.90
666;DHT22;315;48.738;9.126;2022-12-07T10:18:39;5.90;99.90
666;DHT22;315;48.738;9.126;2022-12-07T10:21:13;6.00;99.90
666;DHT22;315;48.738;9.126;2022-12-07T10:23:41;6.20;99.90
666;DHT22;315;48.738;9.126;2022-12-07T10:26:20;6.40;99.90
666;DHT22;315;48.738;9.126;2022-12-07T10:28:47;6.20;99.90
666;DHT22;315;48.738;9.126;2022-12-07T10:31:19;6.30;99.90
666;DHT22;315;48.738;9.126;2022-12-07T10:33:56;6.30;99.90
666;DHT22;315;48.738;9.126;2022-12-07T10:36:36;6.10;99.90
666;DHT22;315;48.738;9.126;2022-12-07T10:39:11;6.10;99.90
666;DHT22;315;48.738;9.126;2022-12-07T10:42:00;6.20;99.90
666;DHT22;315;48.738;9.126;2022-12-07T10:44:28;6.10;99.90
666;DHT22;315;48.738;9.126;2022-12-07T10:49:55;6.00;99.90
666;DHT22;315;48.738;9.126;2022-12-07T10:55:26;6.00;99.90
666;DHT22;315;48.738;9.126;2022-12-07T11:01:29;6.10;99.90
666;DHT22;315;48.738;9.126;2022-12-07T11:23:18;6.40;99.90
666;DHT22;315;48.738;9.126;2022-12-07T11:33:54;6.50;99.90
666;DHT22;315;48.738;9.126;2022-12-07T11:36:43;6.30;99.90
666;DHT22;315;48.738;9.126;2022-12-07T11:41:49;6.10;99.90
666;DHT22;315;48.738;9.126;2022-12-07T11:44:31;6.10;99.90
666;DHT22;315;48.738;9.126;2022-12-07T11:47:18;6.10;99.90
666;DHT22;315;48.738;9.126;2022-12-07T11:50:13;6.10;99.90
666;DHT22;315;48.738;9.126;2022-12-07T11:55:24;6.30;99.90
666;DHT22;315;48.738;9.126;2022-12-07T11:57:58;6.20;99.90
666;DHT22;315;48.738;9.126;2022-12-07T12:00:28;6.40;99.90
666;DHT22;315;48.738;9.126;2022-12-07T12:03:03;6.50;99.90
666;DHT22;315;48.738;9.126;2022-12-07T12:05:33;6.50;99.90
666;DHT22;315;48.738;9.126;2022-12-07T12:08:16;6.50;99.90
666;DHT22;315;48.738;9.126;2022-12-07T12:14:00;6.60;99.90
666;DHT22;315;48.738;9.126;2022-12-07T12:16:56;6.50;99.90
666;DHT22;315;48.738;9.126;2022-12-07T12:19:34;6.60;99.90
666;DHT22;315;48.738;9.126;2022-12-07T12:22:14;6.50;99.90
666;DHT22;315;48.738;9.126;2022-12-07T12:24:42;6.50;99.90
666;DHT22;315;48.738;9.126;2022-12-07T12:27:17;6.40;99.90
666;DHT22;315;48.738;9.126;2022-12-07T12:29:53;6.40;99.90
666;DHT22;315;48.738;9.126;2022-12-07T12:32:42;6.40;99.90
666;DHT22;315;48.738;9.126;2022-12-07T12:37:53;6.10;99.90
666;DHT22;315;48.738;9.126;2022-12-07T12:42:56;6.10;99.90
666;DHT22;315;48.738;9.126;2022-12-07T12:45:32;6.20;99.90
666;DHT22;315;48.738;9.126;2022-12-07T12:48:02;6.20;99.90
666;DHT22;315;48.738;9.126;2022-12-07T12:50:32;6.20;99.90
666;DHT22;315;48.738;9.126;2022-12-07T12:53:20;6.10;99.90
666;DHT22;315;48.738;9.126;2022-12-07T13:00:45;5.90;99.90
666;DHT22;315;48.738;9.126;2022-12-07T13:03:29;5.80;99.90
666;DHT22;315;48.738;9.126;2022-12-07T13:06:17;5.80;99.90
666;DHT22;315;48.738;9.126;2022-12-07T13:08:43;5.80;99.90
666;DHT22;315;48.738;9.126;2022-12-07T13:16:58;6.10;99.90
666;DHT22;315;48.738;9.126;2022-12-07T13:19:54;6.30;99.90
666;DHT22;315;48.738;9.126;2022-12-07T13:25:06;6.60;99.90
666;DHT22;315;48.738;9.126;2022-12-07T13:27:34;6.60;99.90
666;DHT22;315;48.738;9.126;2022-12-07T13:30:18;6.70;99.90
666;DHT22;315;48.738;9.126;2022-12-07T13:32:52;6.60;99.90
666;DHT22;315;48.738;9.126;2022-12-07T13:35:35;6.70;99.90
666;DHT22;315;48.738;9.126;2022-12-07T13:38:13;6.70;99.90
666;DHT22;315;48.738;9.126;2022-12-07T13:40:40;6.80;99.90
666;DHT22;315;48.738;9.126;2022-12-07T13:43:13;6.80;99.90
666;DHT22;315;48.738;9.126;2022-12-07T13:45:40;6.70;99.90
666;DHT22;315;48.738;9.126;2022-12-07T13:48:31;6.60;99.90
666;DHT22;315;48.738;9.126;2022-12-07T13:51:01;6.50;99.90
666;DHT22;315;48.738;9.126;2022-12-07T13:53:28;6.40;99.90
666;DHT22;315;48.738;9.126;2022-12-07T13:55:56;6.50;99.90
666;DHT22;315;48.738;9.126;2022-12-07T13:58:24;6.60;99.90
666;DHT22;315;48.738;9.126;2022-12-07T14:00:50;6.60;99.90
666;DHT22;315;48.738;9.126;2022-12-07T14:05:43;6.60;99.90
666;DHT22;315;48.738;9.126;2022-12-07T14:15:51;6.40;99.90
666;DHT22;315;48.738;9.126;2022-12-07T14:23:30;6.10;99.90
666;DHT22;315;48.738;9.126;2022-12-07T14:28:42;6.10;99.90
666;DHT22;315;48.738;9.126;2022-12-07T14:31:21;6.00;99.90
666;DHT22;315;48.738;9.126;2022-12-07T14:33:49;5.80;99.90
666;DHT22;315;48.738;9.126;2022-12-07T14:36:14;5.70;99.90
666;DHT22;315;48.738;9.126;2022-12-07T14:38:40;5.90;99.90
666;DHT22;315;48.738;9.126;2022-12-07T14:41:12;5.80;99.90
666;DHT22;315;48.738;9.126;2022-12-07T14:43:58;5.80;99.90
666;DHT22;315;48.738;9.126;2022-12-07T14:46:24;5.70;99.90
666;DHT22;315;48.738;9.126;2022-12-07T14:48:49;5.80;99.90
666;DHT22;315;48.738;9.126;2022-12-07T14:51:15;5.70;99.90
666;DHT22;315;48.738;9.126;2022-12-07T14:53:44;5.60;99.90
666;DHT22;315;48.738;9.126;2022-12-07T14:56:11;5.80;99.90
666;DHT22;315;48.738;9.126;2022-12-07T14:58:37;5.70;99.90
666;DHT22;315;48.738;9.126;2022-12-07T15:01:03;5.80;99.90
666;DHT22;315;48.738;9.126;2022-12-07T15:03:29;5.80;99.90
666;DHT22;315;48.738;9.126;2022-12-07T15:05:55;5.70;99.90
666;DHT22;315;48.738;9.126;2022-12-07T15:08:20;5.70;99.90
666;DHT22;315;48.738;9.126;2022-12-07T15:10:46;5.60;99.90
666;DHT22;315;48.738;9.126;2022-12-07T15:13:11;5.70;99.90
666;DHT22;315;48.738;9.126;2022-12-07T15:15:55;5.70;99.90
666;DHT22;315;48.738;9.126;2022-12-07T15:18:22;5.50;99.90
666;DHT22;315;48.738;9.126;2022-12-07T15:20:48;5.60;99.90
666;DHT22;315;48.738;9.126;2022-12-07T15:23:13;5.60;99.90
666;DHT22;315;48.738;9.126;2022-12-07T15:25:44;5.50;99.90
666;DHT22;315;48.738;9.126;2022-12-07T15:28:10;5.40;99.90
666;DHT22;315;48.738;9.126;2022-12-07T15:30:37;5.40;99.90
666;DHT22;315;48.738;9.126;2022-12-07T15:33:03;5.30;99.90
666;DHT22;315;48.738;9.126;2022-12-07T15:35:28;5.30;99.90
666;DHT22;315;48.738;9.126;2022-12-07T15:37:54;5.30;99.90
666;DHT22;315;48.738;9.126;2022-12-07T15:40:19;5.30;99.90
666;DHT22;315;48.738;9.126;2022-12-07T15:42:45;5.30;99.90
666;DHT22;315;48.738;9.126;2022-12-07T15:45:11;5.20;99.90
666;DHT22;315;48.738;9.126;2022-12-07T15:47:41;5.10;99.90
666;DHT22;315;48.738;9.126;2022-12-07T15:50:09;5.20;99.90
666;DHT22;315;48.738;9.126;2022-12-07T15:52:35;5.20;99.90
666;DHT22;315;48.738;9.126;2022-12-07T15:55:02;5.10;99.90
666;DHT22;315;48.738;9.126;2022-12-07T15:57:29;5.10;99.90
666;DHT22;315;48.738;9.126;2022-12-07T15:59:54;5.10;99.90
666;DHT22;315;48.738;9.126;2022-12-07T16:02:20;5.00;99.90
666;DHT22;315;48.738;9.126;2022-12-07T16:04:45;4.90;99.90
666;DHT22;315;48.738;9.126;2022-12-07T16:07:11;4.90;99.90
666;DHT22;315;48.738;9.126;2022-12-07T16:09:37;4.80;99.90
666;DHT22;315;48.738;9.126;2022-12-07T16:12:03;4.70;99.90
666;DHT22;315;48.738;9.126;2022-12-07T16:14:29;4.60;99.90
666;DHT22;315;48.738;9.126;2022-12-07T16:16:57;4.50;99.90
666;DHT22;315;48.738;9.126;2022-12-07T16:19:23;4.50;99.90
666;DHT22;315;48.738;9.126;2022-12-07T16:21:48;4.60;99.90
666;DHT22;315;48.738;9.126;2022-12-07T16:24:14;4.50;99.90
666;DHT22;315;48.738;9.126;2022-12-07T16:26:40;4.50;99.90
666;DHT22;315;48.738;9.126;2022-12-07T16:29:05;4.60;99.90
666;DHT22;315;48.738;9.126;2022-12-07T16:31:31;4.60;99.90
666;DHT22;315;48.738;9.126;2022-12-07T16:33:58;4.50;99.90
666;DHT22;315;48.738;9.126;2022-12-07T16:36:24;4.50;99.90
666;DHT22;315;48.738;9.126;2022-12-07T16:38:51;4.50;99.90
666;DHT22;315;48.738;9.126;2022-12-07T16:41:16;4.50;99.90
666;DHT22;315;48.738;9.126;2022-12-07T16:43:43;4.60;99.90
666;DHT22;315;48.738;9.126;2022-12-07T16:46:09;4.50;99.90
666;DHT22;315;48.738;9.126;2022-12-07T16:48:36;4.40;99.90
666;DHT22;315;48.738;9.126;2022-12-07T16:51:04;4.40;99.90
666;DHT22;315;48.738;9.126;2022-12-07T16:53:30;4.30;99.90
666;DHT22;315;48.738;9.126;2022-12-07T16:55:56;4.30;99.90
666;DHT22;315;48.738;9.126;2022-12-07T16:58:21;4.20;99.90
666;DHT22;315;48.738;9.126;2022-12-07T17:00:47;4.10;99.90
666;DHT22;315;48.738;9.126;2022-12-07T17:03:13;4.10;99.90
666;DHT22;315;48.738;9.126;2022-12-07T17:05:41;4.00;99.90
666;DHT22;315;48.738;9.126;2022-12-07T17:08:08;3.90;99.90
666;DHT22;315;48.738;9.126;2022-12-07T17:10:35;3.90;99.90
666;DHT22;315;48.738;9.126;2022-12-07T17:13:02;3.90;99.90
666;DHT22;315;48.738;9.126;2022-12-07T17:18:23;3.90;99.90
666;DHT22;315;48.738;9.126;2022-12-07T17:20:48;3.90;99.90
666;DHT22;315;48.738;9.126;2022-12-07T17:23:14;3.90;99.90
666;DHT22;315;48.738;9.126;2022-12-07T17:25:39;3.90;99.90
666;DHT22;315;48.738;9.126;2022-12-07T17:28:05;3.90;99.90
666;DHT22;315;48.738;9.126;2022-12-07T17:30:30;3.90;99.90
666;DHT22;315;48.738;9.126;2022-12-07T17:32:56;3.90;99.90
666;DHT22;315;48.738;9.126;2022-12-07T17:35:22;3.80;99.90
666;DHT22;315;48.738;9.126;2022-12-07T17:37:47;3.80;99.90
666;DHT22;315;48.738;9.126;2022-12-07T17:40:14;4.00;99.90
666;DHT22;315;48.738;9.126;2022-12-07T17:42:40;4.20;99.90
666;DHT22;315;48.738;9.126;2022-12-07T17:45:10;4.30;99.90
666;DHT22;315;48.738;9.126;2022-12-07T17:47:37;4.20;99.90
666;DHT22;315;48.738;9.126;2022-12-07T17:50:04;4.20;99.90
666;DHT22;315;48.738;9.126;2022-12-07T17:52:30;4.20;99.90
666;DHT22;315;48.738;9.126;2022-12-07T17:55:14;4.10;99.90
666;DHT22;315;48.738;9.126;2022-12-07T17:57:39;4.10;99.90
666;DHT22;315;48.738;9.126;2022-12-07T18:00:06;4.00;99.90
666;DHT22;315;48.738;9.126;2022-12-07T18:02:31;4.00;99.90
666;DHT22;315;48.738;9.126;2022-12-07T18:04:57;4.00;99.90
666;DHT22;315;48.738;9.126;2022-12-07T18:07:22;3.90;99.90
666;DHT22;315;48.738;9.126;2022-12-07T18:09:48;4.00;99.90
666;DHT22;315;48.738;9.126;2022-12-07T18:12:13;3.90;99.90
666;DHT22;315;48.738;9.126;2022-12-07T18:14:39;3.90;99.90
666;DHT22;315;48.738;9.126;2022-12-07T18:17:04;3.90;99.90
666;DHT22;315;48.738;9.126;2022-12-07T18:19:30;3.90;99.90
666;DHT22;315;48.738;9.126;2022-12-07T18:21:57;3.90;99.90
666;DHT22;315;48.738;9.126;2022-12-07T18:24:23;4.00;99.90
666;DHT22;315;48.738;9.126;2022-12-07T18:26:48;4.00;99.90
666;DHT22;315;48.738;9.126;2022-12-07T18:29:16;4.00;99.90
666;DHT22;315;48.738;9.126;2022-12-07T18:31:45;4.00;99.90
666;DHT22;315;48.738;9.126;2022-12-07T18:34:15;4.00;99.90
666;DHT22;315;48.738;9.126;2022-12-07T18:36:43;4.00;99.90
666;DHT22;315;48.738;9.126;2022-12-07T18:39:13;4.00;99.90
666;DHT22;315;48.738;9.126;2022-12-07T18:41:40;4.00;99.90
666;DHT22;315;48.738;9.126;2022-12-07T18:44:06;4.00;99.90
666;DHT22;315;48.738;9.126;2022-12-07T18:46:32;3.90;99.90
666;DHT22;315;48.738;9.126;2022-12-07T18:48:58;3.90;99.90
666;DHT22;315;48.738;9.126;2022-12-07T18:51:25;3.90;99.90
666;DHT22;315;48.738;9.126;2022-12-07T18:53:54;3.50;99.90
666;DHT22;315;48.738;9.126;2022-12-07T18:56:22;3.90;99.90
666;DHT22;315;48.738;9.126;2022-12-07T18:58:50;3.90;99.90
666;DHT22;315;48.738;9.126;2022-12-07T19:01:34;3.90;99.90
666;DHT22;315;48.738;9.126;2022-12-07T19:04:00;3.90;99.90
666;DHT22;315;48.738;9.126;2022-12-07T19:06:26;3.90;99.90